Time;durP1;ratioP1;P1;durP2;ratioP2;P2;SDS_P1;SDS_P2;PMS_P1;PMS_P2;Temp;Humidity;BMP_temperature;BMP_pressure;BME280_temperature;BME280_humidity;BME280_pressure;Samples;Min_cycle;Max_cycle;Signal;HPM_P1;HPM_P2
2023/06/18 00:02:21;;;;;;;21.20;15.48;;;14.90;92.40;;;;;;5047338;28;20029;-47
2023/06/18 00:04:50;;;;;;;19.27;14.30;;;14.90;92.40;;;;;;5052045;28;20349;-46
2023/06/18 00:07:20;;;;;;;15.82;14.13;;;14.90;92.50;;;;;;5053792;28;20087;-47
2023/06/18 00:09:47;;;;;;;19.50;15.10;;;14.90;92.40;;;;;;5044482;28;20090;-47
2023/06/18 00:12:17;;;;;;;24.55;16.38;;;14.90;92.50;;;;;;5035364;28;20459;-46
2023/06/18 00:14:44;;;;;;;;;;;14.70;92.40;;;;;;5031808;28;20050;-46
2023/06/18 00:17:11;;;;;;;18.27;15.07;;;14.80;92.60;;;;;;5044484;28;19909;-47
2023/06/18 00:19:41;;;;;;;25.05;14.68;;;14.70;92.50;;;;;;5048095;28;20048;-47
2023/06/18 00:22:09;;;;;;;14.65;12.98;;;14.70;92.40;;;;;;5052070;28;20053;-48
2023/06/18 00:24:39;;;;;;;18.33;14.75;;;14.70;92.40;;;;;;5042932;28;20064;-46
2023/06/18 00:27:06;;;;;;;;;;;14.80;92.60;;;;;;5053987;28;20029;-48
2023/06/18 00:29:31;;;;;;;19.42;15.30;;;14.80;92.50;;;;;;5038821;28;19905;-49
2023/06/18 00:31:58;;;;;;;15.15;13.52;;;14.70;92.40;;;;;;5047912;28;20477;-47
2023/06/18 00:34:32;;;;;;;19.15;14.57;;;14.70;92.50;;;;;;5049642;28;20091;-47
2023/06/18 00:37:00;;;;;;;15.27;13.68;;;14.70;92.40;;;;;;5033430;28;20036;-49
2023/06/18 00:39:25;;;;;;;18.48;13.85;;;14.80;92.50;;;;;;5006730;28;20477;-47
2023/06/18 00:41:53;;;;;;;15.10;12.52;;;14.70;92.40;;;;;;5046069;28;20033;-46
2023/06/18 00:44:21;;;;;;;14.32;12.32;;;14.70;92.50;;;;;;5049034;28;20505;-48
2023/06/18 00:46:51;;;;;;;14.60;12.55;;;14.70;92.30;;;;;;5045797;28;20125;-47
2023/06/18 00:49:22;;;;;;;16.33;13.13;;;14.70;92.30;;;;;;5032272;28;20048;-49
2023/06/18 00:51:52;;;;;;;19.13;14.32;;;14.80;92.30;;;;;;5052331;28;20068;-47
2023/06/18 00:54:19;;;;;;;15.75;13.65;;;14.70;92.30;;;;;;5043072;28;20047;-46
2023/06/18 00:56:50;;;;;;;18.63;14.30;;;14.70;92.30;;;;;;5052624;28;20078;-46
2023/06/18 00:59:27;;;;;;;15.30;13.43;;;14.70;92.40;;;;;;5050173;28;20033;-46
2023/06/18 01:01:56;;;;;;;17.92;13.77;;;14.70;92.50;;;;;;5048988;28;20487;-46
2023/06/18 01:04:28;;;;;;;18.02;14.73;;;14.70;92.30;;;;;;5033734;28;20041;-46
2023/06/18 01:07:01;;;;;;;17.27;14.63;;;14.70;92.30;;;;;;5053159;28;20040;-47
2023/06/18 01:09:40;;;;;;;20.05;17.42;;;14.70;92.30;;;;;;5044628;28;20579;-46
2023/06/18 01:12:07;;;;;;;35.92;17.67;;;14.70;92.30;;;;;;5013574;28;20029;-50
2023/06/18 01:14:37;;;;;;;19.38;15.63;;;14.70;92.30;;;;;;5031141;28;20475;-47
2023/06/18 01:17:07;;;;;;;20.25;15.13;;;14.70;92.40;;;;;;5046776;28;20049;-47
2023/06/18 01:19:49;;;;;;;18.55;15.82;;;14.70;92.50;;;;;;5052518;28;20057;-49
2023/06/18 01:22:46;;;;;;;20.95;17.23;;;14.70;92.50;;;;;;5052627;28;20378;-47
2023/06/18 01:25:16;;;;;;;23.98;16.85;;;14.70;92.50;;;;;;5041758;28;20029;-46
2023/06/18 01:27:50;;;;;;;26.48;18.67;;;14.70;92.60;;;;;;5049552;28;20037;-46
2023/06/18 01:30:17;;;;;;;26.40;17.90;;;14.70;92.60;;;;;;5053386;28;20327;-46
2023/06/18 01:32:43;;;;;;;22.85;15.23;;;14.60;92.80;;;;;;5052468;28;20043;-47
2023/06/18 01:35:15;;;;;;;20.02;16.08;;;14.60;92.80;;;;;;5053621;28;20026;-51
2023/06/18 01:37:44;;;;;;;22.23;16.13;;;14.70;92.90;;;;;;5051656;28;20021;-49
2023/06/18 01:40:22;;;;;;;18.93;15.40;;;14.60;92.80;;;;;;5056839;28;20024;-47
2023/06/18 01:43:05;;;;;;;35.40;18.05;;;14.60;92.90;;;;;;5056449;28;20289;-46
2023/06/18 01:45:41;;;;;;;25.70;15.85;;;14.70;93.10;;;;;;5043716;28;20588;-46
2023/06/18 01:48:09;;;;;;;21.70;13.50;;;14.60;92.90;;;;;;5039222;28;20029;-46
2023/06/18 01:50:38;;;;;;;17.40;13.18;;;14.60;93.00;;;;;;5055449;28;20018;-46
2023/06/18 01:53:06;;;;;;;22.10;14.90;;;14.50;92.80;;;;;;5014904;28;20026;-46
2023/06/18 01:55:38;;;;;;;22.67;14.98;;;14.50;92.90;;;;;;5055101;28;20029;-49
2023/06/18 01:58:05;;;;;;;20.63;14.73;;;14.50;93.20;;;;;;5056534;28;20053;-46
2023/06/18 02:00:36;;;;;;;24.30;17.20;;;14.50;93.10;;;;;;5048830;28;20022;-45
2023/06/18 02:03:04;;;;;;;23.25;15.77;;;14.40;93.10;;;;;;5052573;28;20044;-47
2023/06/18 02:05:32;;;;;;;21.65;16.10;;;14.50;93.40;;;;;;5051966;28;20029;-47
2023/06/18 02:07:59;;;;;;;24.25;18.23;;;14.50;93.40;;;;;;5048090;28;20025;-45
2023/06/18 02:10:26;;;;;;;26.42;16.95;;;14.50;93.30;;;;;;5054196;28;20089;-46
2023/06/18 02:12:51;;;;;;;27.10;17.77;;;14.40;93.20;;;;;;5053214;28;20028;-46
2023/06/18 02:15:20;;;;;;;21.00;15.50;;;14.40;93.40;;;;;;5051147;28;20060;-48
2023/06/18 02:17:48;;;;;;;25.75;16.92;;;14.50;93.40;;;;;;5055123;28;20029;-46
2023/06/18 02:20:16;;;;;;;23.33;15.93;;;14.40;93.30;;;;;;5055420;28;20124;-46
2023/06/18 02:22:45;;;;;;;23.70;15.90;;;14.50;93.30;;;;;;5054596;28;20025;-46
2023/06/18 02:25:12;;;;;;;20.73;15.38;;;14.40;93.20;;;;;;5043821;28;20493;-46
2023/06/18 02:27:38;;;;;;;20.75;15.10;;;14.50;93.30;;;;;;5055168;28;20045;-47
2023/06/18 02:30:08;;;;;;;21.92;14.75;;;14.40;93.30;;;;;;5048046;28;20055;-47
2023/06/18 02:32:39;;;;;;;18.63;14.20;;;14.40;93.20;;;;;;5053575;28;20033;-46
2023/06/18 02:35:08;;;;;;;19.35;13.77;;;14.40;93.20;;;;;;5035510;28;20451;-46
2023/06/18 02:37:35;;;;;;;18.92;14.82;;;14.40;93.20;;;;;;5020579;28;20128;-46
2023/06/18 02:40:02;;;;;;;18.52;14.18;;;14.40;93.30;;;;;;5031122;28;20029;-46
2023/06/18 02:42:31;;;;;;;21.92;14.80;;;14.50;93.40;;;;;;5031131;28;20060;-46
2023/06/18 02:44:57;;;;;;;18.02;14.15;;;14.50;93.40;;;;;;5015787;28;20057;-47
2023/06/18 02:47:23;;;;;;;32.78;15.27;;;14.50;93.40;;;;;;5033477;28;20065;-47
2023/06/18 02:49:49;;;;;;;19.80;13.88;;;14.50;93.40;;;;;;5027679;28;20037;-46
2023/06/18 02:52:19;;;;;;;22.50;14.75;;;14.50;93.40;;;;;;5050842;28;20028;-46
2023/06/18 02:54:46;;;;;;;20.35;14.43;;;14.60;93.40;;;;;;5054064;28;20434;-46
2023/06/18 02:57:13;;;;;;;22.30;15.50;;;14.60;93.40;;;;;;5050923;28;20116;-46
2023/06/18 02:59:40;;;;;;;22.15;15.40;;;14.60;93.30;;;;;;5050995;28;20074;-46
2023/06/18 03:02:08;;;;;;;20.50;14.00;;;14.60;93.40;;;;;;5048718;28;20025;-45
2023/06/18 03:04:35;;;;;;;22.85;15.35;;;14.70;93.40;;;;;;5055144;28;20116;-45
2023/06/18 03:07:03;;;;;;;30.63;16.20;;;14.70;93.40;;;;;;5053637;28;20335;-47
2023/06/18 03:09:31;;;;;;;22.25;15.07;;;14.70;93.40;;;;;;5039611;28;20040;-46
2023/06/18 03:12:00;;;;;;;25.58;16.48;;;14.80;93.50;;;;;;5054676;28;20017;-47
2023/06/18 03:14:27;;;;;;;22.88;15.32;;;14.70;93.50;;;;;;5052020;28;20045;-47
2023/06/18 03:16:56;;;;;;;24.95;16.75;;;14.80;93.50;;;;;;5052153;28;20025;-46
2023/06/18 03:19:23;;;;;;;27.75;18.33;;;14.80;93.50;;;;;;5049323;28;20037;-46
2023/06/18 03:21:50;;;;;;;25.92;16.70;;;14.80;93.50;;;;;;5053471;28;20036;-46
2023/06/18 03:24:17;;;;;;;23.38;16.42;;;14.90;93.60;;;;;;5046071;28;20096;-46
2023/06/18 03:26:46;;;;;;;27.67;18.73;;;14.90;93.70;;;;;;5054557;28;20067;-46
2023/06/18 03:29:14;;;;;;;30.85;19.88;;;14.90;93.70;;;;;;5054589;28;20435;-45
2023/06/18 03:31:40;;;;;;;35.35;19.60;;;14.90;93.80;;;;;;5047108;28;20021;-46
2023/06/18 03:34:08;;;;;;;28.40;19.90;;;15.00;93.90;;;;;;5054356;28;20103;-45
2023/06/18 03:36:43;;;;;;;33.92;20.52;;;15.00;94.00;;;;;;5052932;28;20423;-44
2023/06/18 03:39:13;;;;;;;35.85;22.15;;;15.10;94.10;;;;;;5039436;28;20037;-46
2023/06/18 03:41:42;;;;;;;33.70;20.35;;;15.10;94.10;;;;;;5052491;28;20096;-46
2023/06/18 03:44:13;;;;;;;37.03;22.15;;;15.20;94.20;;;;;;5054212;28;20393;-45
2023/06/18 03:46:41;;;;;;;40.03;22.70;;;15.30;94.20;;;;;;5051976;28;20040;-45
2023/06/18 03:49:06;;;;;;;37.45;22.85;;;15.30;94.30;;;;;;5052753;28;20033;-45
2023/06/18 03:51:33;;;;;;;38.50;23.67;;;15.40;94.30;;;;;;5050463;28;20031;-45
2023/06/18 03:54:00;;;;;;;42.28;24.40;;;15.40;94.30;;;;;;5046616;28;20051;-47
2023/06/18 03:56:27;;;;;;;34.45;22.20;;;15.40;94.30;;;;;;5053976;28;20096;-45
2023/06/18 03:58:54;;;;;;;35.72;23.13;;;15.40;94.20;;;;;;5052762;28;20021;-48
2023/06/18 04:01:19;;;;;;;51.40;27.95;;;15.50;94.20;;;;;;5048835;28;20728;-46
2023/06/18 04:03:47;;;;;;;43.42;25.40;;;15.50;94.20;;;;;;5052080;28;20052;-46
2023/06/18 04:06:16;;;;;;;45.40;25.33;;;15.60;94.20;;;;;;5046362;28;20790;-45
2023/06/18 04:08:45;;;;;;;42.30;25.70;;;15.60;94.20;;;;;;5047083;28;20036;-46
2023/06/18 04:11:12;;;;;;;42.08;26.08;;;15.60;94.30;;;;;;5051254;28;20187;-45
2023/06/18 04:13:38;;;;;;;34.28;24.42;;;15.70;94.30;;;;;;5035630;28;20486;-46
2023/06/18 04:16:06;;;;;;;43.55;26.92;;;15.80;94.30;;;;;;5047726;28;20072;-46
2023/06/18 04:18:34;;;;;;;36.83;25.35;;;15.80;94.30;;;;;;5053342;28;20521;-46
2023/06/18 04:21:01;;;;;;;40.03;26.02;;;15.90;94.40;;;;;;5048642;28;20028;-46
2023/06/18 04:23:28;;;;;;;45.28;29.40;;;15.90;94.30;;;;;;5052617;28;20450;-46
2023/06/18 04:25:53;;;;;;;44.08;30.35;;;16.00;94.30;;;;;;5045765;28;20075;-49
2023/06/18 04:28:25;;;;;;;38.67;25.60;;;16.00;94.30;;;;;;5048856;28;20057;-45
2023/06/18 04:30:51;;;;;;;46.67;28.77;;;16.10;94.30;;;;;;5046336;28;20060;-45
2023/06/18 04:33:18;;;;;;;46.88;30.48;;;16.20;94.30;;;;;;5052007;28;20025;-47
2023/06/18 04:35:46;;;;;;;51.30;32.60;;;16.30;94.30;;;;;;5053003;28;20029;-46
2023/06/18 04:38:14;;;;;;;41.88;29.45;;;16.30;94.30;;;;;;5048207;28;20075;-46
2023/06/18 04:40:43;;;;;;;37.90;27.00;;;16.40;94.30;;;;;;5021147;28;20096;-49
2023/06/18 04:43:08;;;;;;;42.58;32.53;;;16.40;94.30;;;;;;5021354;28;20450;-48
2023/06/18 04:45:34;;;;;;;45.22;30.27;;;16.50;94.30;;;;;;5047120;28;20034;-48
2023/06/18 04:48:04;;;;;;;46.03;34.47;;;16.60;94.40;;;;;;5045000;28;20441;-46
2023/06/18 04:50:31;;;;;;;38.88;30.67;;;16.70;94.30;;;;;;5042107;28;20060;-48
2023/06/18 04:52:59;;;;;;;39.78;32.85;;;16.80;94.30;;;;;;5031824;28;20578;-46
2023/06/18 04:55:25;;;;;;;40.30;31.35;;;16.90;94.20;;;;;;5027791;28;20456;-48
2023/06/18 04:57:52;;;;;;;38.20;33.00;;;16.90;94.20;;;;;;5032882;28;20075;-46
2023/06/18 05:00:20;;;;;;;39.88;34.60;;;17.00;94.10;;;;;;5030617;28;20443;-46
2023/06/18 05:02:48;;;;;;;36.83;33.13;;;17.00;94.00;;;;;;5028279;28;20047;-46
2023/06/18 05:05:16;;;;;;;35.47;31.67;;;17.20;93.90;;;;;;5032448;28;20030;-47
2023/06/18 05:07:42;;;;;;;34.22;30.58;;;17.20;93.80;;;;;;5032459;28;20026;-46
2023/06/18 05:10:10;;;;;;;34.28;30.67;;;17.40;93.80;;;;;;5019068;28;20022;-49
2023/06/18 05:12:37;;;;;;;30.00;26.95;;;17.50;93.80;;;;;;5032415;28;20036;-49
2023/06/18 05:15:04;;;;;;;33.35;30.05;;;17.60;93.60;;;;;;5031788;28;20435;-47
2023/06/18 05:17:31;;;;;;;27.67;25.17;;;17.60;93.40;;;;;;5033802;28;20155;-47
2023/06/18 05:20:00;;;;;;;29.80;26.80;;;17.70;93.20;;;;;;5032830;28;20479;-48
2023/06/18 05:22:28;;;;;;;25.25;22.85;;;17.80;93.10;;;;;;5029343;28;20037;-48
2023/06/18 05:24:55;;;;;;;26.77;24.13;;;17.90;93.00;;;;;;5030704;28;20040;-47
2023/06/18 05:27:21;;;;;;;27.58;25.00;;;17.90;92.70;;;;;;5031867;28;20091;-47
2023/06/18 05:29:51;;;;;;;24.52;22.17;;;17.80;92.60;;;;;;5033279;28;20037;-49
2023/06/18 05:32:18;;;;;;;27.10;24.48;;;17.80;92.50;;;;;;5030157;28;20037;-47
2023/06/18 05:34:46;;;;;;;29.75;26.70;;;17.80;92.60;;;;;;5031038;28;20038;-47
2023/06/18 05:37:11;;;;;;;29.38;26.67;;;17.90;92.60;;;;;;5032521;28;20041;-47
2023/06/18 05:39:39;;;;;;;25.45;23.05;;;17.90;92.60;;;;;;5028998;28;20014;-48
2023/06/18 05:42:07;;;;;;;27.35;24.58;;;17.90;92.60;;;;;;5028685;28;20096;-48
2023/06/18 05:44:34;;;;;;;24.33;21.98;;;18.00;92.70;;;;;;5032736;28;20057;-47
2023/06/18 05:47:02;;;;;;;29.13;25.55;;;18.10;92.60;;;;;;5040767;28;20037;-47
2023/06/18 05:49:30;;;;;;;27.10;24.17;;;18.20;92.50;;;;;;5050395;28;20452;-49
2023/06/18 05:51:59;;;;;;;29.40;26.45;;;18.40;92.30;;;;;;5051460;28;20025;-49
2023/06/18 05:54:26;;;;;;;23.65;21.35;;;18.50;91.90;;;;;;5046876;28;20058;-51
2023/06/18 05:56:54;;;;;;;25.95;23.42;;;18.90;91.90;;;;;;5048097;28;20083;-50
2023/06/18 05:59:19;;;;;;;20.20;18.33;;;19.10;91.50;;;;;;5029607;28;20037;-53
2023/06/18 06:01:46;;;;;;;21.92;19.92;;;19.40;91.10;;;;;;5028715;28;20100;-47
2023/06/18 06:04:12;;;;;;;24.10;21.80;;;19.60;90.60;;;;;;5030913;28;20362;-49
2023/06/18 06:06:39;;;;;;;22.70;20.63;;;19.80;89.00;;;;;;5031054;28;20048;-50
2023/06/18 06:09:06;;;;;;;17.70;16.10;;;20.10;88.80;;;;;;5043655;28;20029;-53
2023/06/18 06:11:36;;;;;;;19.65;17.70;;;20.30;88.30;;;;;;5031194;28;20032;-49
2023/06/18 06:14:04;;;;;;;22.65;20.42;;;20.60;87.70;;;;;;5030391;28;20049;-50
2023/06/18 06:16:32;;;;;;;17.52;15.73;;;20.80;85.90;;;;;;5041053;28;20331;-49
2023/06/18 06:18:59;;;;;;;14.15;12.75;;;20.80;85.70;;;;;;5054525;28;20381;-49
2023/06/18 06:21:25;;;;;;;18.10;16.40;;;21.00;85.60;;;;;;5037846;28;20044;-51
2023/06/18 06:23:53;;;;;;;17.27;15.57;;;21.00;84.80;;;;;;5043359;28;20135;-54
2023/06/18 06:26:20;;;;;;;19.10;17.40;;;20.90;84.80;;;;;;5038842;28;20039;-51
2023/06/18 06:28:47;;;;;;;23.27;20.95;;;20.90;85.10;;;;;;5049276;28;20041;-50
2023/06/18 06:31:14;;;;;;;21.83;19.83;;;21.00;84.60;;;;;;5050091;28;20025;-54
2023/06/18 06:33:41;;;;;;;20.55;18.55;;;21.10;84.20;;;;;;5049824;28;20110;-48
2023/06/18 06:36:09;;;;;;;17.23;15.63;;;21.30;83.50;;;;;;5040898;28;20080;-52
2023/06/18 06:38:35;;;;;;;17.65;15.77;;;21.40;83.10;;;;;;5019404;28;20021;-49
2023/06/18 06:41:02;;;;;;;18.00;16.33;;;21.50;83.10;;;;;;5034315;28;20086;-52
2023/06/18 06:43:31;;;;;;;19.45;17.65;;;21.50;82.70;;;;;;5035207;28;20021;-49
2023/06/18 06:45:57;;;;;;;17.15;15.55;;;21.50;82.70;;;;;;5040706;28;20056;-49
2023/06/18 06:48:23;;;;;;;19.13;17.25;;;21.50;83.10;;;;;;5053998;28;20037;-51
2023/06/18 06:50:50;;;;;;;19.27;17.33;;;21.60;82.60;;;;;;5055073;28;20047;-49
2023/06/18 06:53:17;;;;;;;15.63;14.15;;;21.60;82.60;;;;;;5047664;28;20450;-48
2023/06/18 06:55:47;;;;;;;18.50;15.98;;;21.70;82.70;;;;;;5043980;28;20386;-48
2023/06/18 06:58:15;;;;;;;18.13;16.50;;;21.80;82.20;;;;;;5046757;28;20332;-49
2023/06/18 07:00:41;;;;;;;15.52;14.02;;;21.80;80.90;;;;;;5039487;28;20049;-49
2023/06/18 07:03:06;;;;;;;16.67;15.07;;;22.00;81.00;;;;;;5055046;28;20326;-49
2023/06/18 07:05:36;;;;;;;13.30;12.02;;;21.90;80.30;;;;;;5054306;28;20029;-48
2023/06/18 07:08:05;;;;;;;14.68;13.23;;;22.10;81.00;;;;;;5022416;28;20034;-48
2023/06/18 07:10:32;;;;;;;15.45;14.02;;;22.10;79.70;;;;;;5026199;28;20037;-50
2023/06/18 07:12:58;;;;;;;14.38;13.07;;;22.20;80.00;;;;;;5036061;28;20024;-48
2023/06/18 07:15:25;;;;;;;17.02;15.20;;;22.30;79.40;;;;;;5049848;28;20057;-48
2023/06/18 07:17:54;;;;;;;15.88;14.40;;;22.50;77.60;;;;;;5049721;28;20604;-49
2023/06/18 07:20:24;;;;;;;13.75;12.45;;;22.80;76.80;;;;;;5045506;28;20100;-48
2023/06/18 07:22:51;;;;;;;13.30;12.10;;;23.20;76.00;;;;;;5048898;28;20056;-48
2023/06/18 07:25:21;;;;;;;15.07;13.68;;;23.70;75.20;;;;;;5054605;28;20398;-48
2023/06/18 07:27:50;;;;;;;14.27;12.98;;;24.20;73.20;;;;;;5049479;28;20029;-48
2023/06/18 07:30:18;;;;;;;15.88;14.48;;;24.60;71.60;;;;;;5046647;28;20029;-48
2023/06/18 07:32:44;;;;;;;12.68;11.50;;;25.00;69.10;;;;;;5050168;28;20458;-48
2023/06/18 07:35:10;;;;;;;12.93;11.80;;;25.30;69.90;;;;;;5053597;28;20086;-48
2023/06/18 07:37:38;;;;;;;12.07;10.88;;;25.60;68.10;;;;;;5042579;28;20091;-50
2023/06/18 07:40:07;;;;;;;11.55;10.48;;;26.10;66.80;;;;;;5030938;28;20120;-48
2023/06/18 07:42:35;;;;;;;12.05;10.95;;;26.60;66.40;;;;;;5033767;28;20029;-48
2023/06/18 07:45:00;;;;;;;12.27;11.27;;;26.90;65.10;;;;;;5032989;28;20048;-49
2023/06/18 07:47:28;;;;;;;13.20;12.00;;;27.10;63.20;;;;;;5014675;28;20041;-48
2023/06/18 07:49:57;;;;;;;11.55;10.52;;;27.00;60.70;;;;;;5035964;28;20041;-49
2023/06/18 07:52:23;;;;;;;12.13;11.02;;;26.90;61.40;;;;;;5042444;28;20057;-50
2023/06/18 07:54:49;;;;;;;9.63;8.57;;;27.30;61.10;;;;;;5030355;28;20033;-48
2023/06/18 07:57:16;;;;;;;11.85;10.77;;;27.60;60.30;;;;;;5034397;28;20037;-48
2023/06/18 07:59:42;;;;;;;10.32;9.35;;;28.00;60.00;;;;;;5033473;28;20021;-48
2023/06/18 08:02:09;;;;;;;8.73;7.95;;;28.00;58.60;;;;;;5031542;28;20056;-51
2023/06/18 08:04:36;;;;;;;15.85;10.15;;;28.40;60.00;;;;;;5035328;28;20392;-49
2023/06/18 08:07:03;;;;;;;10.02;8.93;;;28.70;57.60;;;;;;5043360;28;20033;-48
2023/06/18 08:09:33;;;;;;;9.90;8.90;;;28.70;58.30;;;;;;5033534;28;20029;-48
2023/06/18 08:12:01;;;;;;;12.45;11.15;;;29.00;56.50;;;;;;5053817;28;20087;-50
2023/06/18 08:14:30;;;;;;;12.90;11.77;;;28.90;57.50;;;;;;5049361;28;20042;-52
2023/06/18 08:16:56;;;;;;;14.83;13.63;;;28.90;58.70;;;;;;5032108;28;20075;-48
2023/06/18 08:19:27;;;;;;;11.77;10.70;;;28.40;60.50;;;;;;5037792;28;20354;-51
2023/06/18 08:21:57;;;;;;;16.38;13.77;;;28.40;60.30;;;;;;5022672;28;20104;-49
2023/06/18 08:24:25;;;;;;;13.63;12.32;;;28.10;60.60;;;;;;5027862;28;20029;-50
2023/06/18 08:26:52;;;;;;;18.15;12.52;;;28.20;61.20;;;;;;5031349;28;20041;-49
2023/06/18 08:29:20;;;;;;;13.98;12.70;;;28.20;60.40;;;;;;5020866;28;20062;-48
2023/06/18 08:31:48;;;;;;;13.13;11.93;;;28.20;61.30;;;;;;5019021;28;20018;-48
2023/06/18 08:34:18;;;;;;;11.82;10.70;;;28.00;60.10;;;;;;5032300;28;20426;-48
2023/06/18 08:36:47;;;;;;;10.88;9.88;;;28.20;63.20;;;;;;5029066;28;20412;-49
2023/06/18 08:39:17;;;;;;;14.00;12.90;;;28.40;60.50;;;;;;5028477;28;20034;-50
2023/06/18 08:41:45;;;;;;;12.32;11.13;;;28.40;58.90;;;;;;5031855;28;20032;-48
2023/06/18 08:44:12;;;;;;;10.63;9.52;;;28.40;60.80;;;;;;5030635;28;20033;-48
2023/06/18 08:46:41;;;;;;;12.02;10.93;;;28.50;60.10;;;;;;5042249;28;20071;-49
2023/06/18 08:49:11;;;;;;;12.40;11.00;;;28.50;59.70;;;;;;5027699;28;20340;-48
2023/06/18 08:51:38;;;;;;;;;;;28.70;58.90;;;;;;5029105;28;20467;-49
2023/06/18 08:54:19;;;;;;;10.32;9.32;;;28.90;59.10;;;;;;5032206;28;19963;-48
2023/06/18 08:56:49;;;;;;;12.25;10.65;;;28.80;58.70;;;;;;5034528;28;20103;-50
2023/06/18 08:59:18;;;;;;;9.35;8.43;;;28.60;58.40;;;;;;5031792;28;20477;-48
2023/06/18 09:01:46;;;;;;;10.40;9.40;;;28.70;57.90;;;;;;5006515;28;20043;-48
2023/06/18 09:04:19;;;;;;;9.50;8.68;;;28.60;56.70;;;;;;5023843;28;20076;-48
2023/06/18 09:06:49;;;;;;;10.50;9.60;;;28.20;59.00;;;;;;5023046;28;20052;-52
2023/06/18 09:09:18;;;;;;;10.35;9.32;;;28.00;59.70;;;;;;5030971;28;20041;-49
2023/06/18 09:11:45;;;;;;;12.95;10.73;;;28.00;62.20;;;;;;5023325;28;20116;-48
2023/06/18 09:14:15;;;;;;;9.77;8.77;;;28.00;60.90;;;;;;5026946;28;20037;-51
2023/06/18 09:16:48;;;;;;;10.20;9.38;;;28.20;62.60;;;;;;5023672;28;20049;-49
2023/06/18 09:19:16;;;;;;;9.95;8.13;;;28.60;60.90;;;;;;5039114;28;20129;-49
2023/06/18 09:21:43;;;;;;;11.45;10.35;;;28.60;59.50;;;;;;5025888;28;20029;-48
2023/06/18 09:24:21;;;;;;;9.18;8.25;;;28.40;56.90;;;;;;5029762;28;20040;-48
2023/06/18 09:27:06;;;;;;;11.75;10.68;;;28.50;57.30;;;;;;5028371;28;20094;-52
2023/06/18 09:29:41;;;;;;;11.07;9.98;;;28.40;59.40;;;;;;5031138;28;20032;-49
2023/06/18 09:32:13;;;;;;;11.63;10.48;;;28.20;59.40;;;;;;5027023;28;20022;-49
2023/06/18 09:34:40;;;;;;;10.27;9.27;;;28.00;59.00;;;;;;5011494;28;20030;-48
2023/06/18 09:37:14;;;;;;;9.38;8.48;;;27.80;59.30;;;;;;5027439;28;20033;-49
2023/06/18 09:39:42;;;;;;;10.38;9.40;;;28.00;60.60;;;;;;5030238;28;20478;-49
2023/06/18 09:42:19;;;;;;;11.23;9.75;;;28.10;60.00;;;;;;5023020;28;20108;-50
2023/06/18 09:44:48;;;;;;;11.07;10.02;;;27.90;60.10;;;;;;5029512;28;20467;-51
2023/06/18 09:47:19;;;;;;;10.85;9.50;;;27.60;59.00;;;;;;5036632;28;20123;-49
2023/06/18 09:49:45;;;;;;;11.43;10.43;;;27.60;60.60;;;;;;5040684;28;20057;-49
2023/06/18 09:52:15;;;;;;;9.13;8.23;;;27.60;61.10;;;;;;5036273;28;20060;-49
2023/06/18 09:54:47;;;;;;;8.88;7.70;;;27.70;58.80;;;;;;5036209;28;20447;-49
2023/06/18 09:57:16;;;;;;;9.77;8.88;;;27.90;59.10;;;;;;5035721;28;20033;-49
2023/06/18 09:59:43;;;;;;;11.40;10.15;;;27.80;59.50;;;;;;5022546;28;20045;-49
2023/06/18 10:02:14;;;;;;;11.75;10.63;;;27.90;60.40;;;;;;5035261;28;20048;-50
2023/06/18 10:04:41;;;;;;;11.75;10.65;;;27.90;59.80;;;;;;5040948;28;20021;-48
2023/06/18 10:07:18;;;;;;;12.60;11.43;;;27.90;61.30;;;;;;5034159;28;20476;-49
2023/06/18 10:09:55;;;;;;;14.93;13.63;;;27.70;60.90;;;;;;5019178;28;20065;-49
2023/06/18 10:12:25;;;;;;;13.85;12.35;;;27.60;61.00;;;;;;5024359;28;20766;-50
2023/06/18 10:14:56;;;;;;;13.77;12.48;;;27.50;61.90;;;;;;5024969;28;20050;-50
2023/06/18 10:17:31;;;;;;;13.18;12.00;;;27.60;63.00;;;;;;5038665;28;20025;-49
2023/06/18 10:20:11;;;;;;;9.50;8.60;;;27.50;63.40;;;;;;5009806;28;20116;-48
2023/06/18 10:22:57;;;;;;;9.68;8.73;;;27.90;62.10;;;;;;5039008;28;20536;-49
2023/06/18 10:25:25;;;;;;;11.25;10.13;;;27.80;57.00;;;;;;5015094;28;20052;-52
2023/06/18 10:27:54;;;;;;;12.25;11.07;;;27.80;60.50;;;;;;5019672;28;20443;-49
2023/06/18 10:30:24;;;;;;;10.48;9.45;;;27.50;60.40;;;;;;5041747;28;20029;-49
2023/06/18 10:32:52;;;;;;;13.73;12.38;;;27.30;59.80;;;;;;5024629;28;20033;-49
2023/06/18 10:35:20;;;;;;;15.85;14.45;;;27.20;62.90;;;;;;5027805;28;20513;-49
2023/06/18 10:37:47;;;;;;;13.95;12.75;;;26.90;60.80;;;;;;5023162;28;20487;-49
2023/06/18 10:40:14;;;;;;;14.45;13.13;;;27.00;62.60;;;;;;5031660;28;20037;-49
2023/06/18 10:42:40;;;;;;;11.30;10.25;;;26.80;64.30;;;;;;5032777;28;20038;-50
2023/06/18 10:45:13;;;;;;;10.32;9.43;;;26.80;63.50;;;;;;5027257;28;20044;-49
2023/06/18 10:47:44;;;;;;;11.38;10.13;;;26.80;66.30;;;;;;5025349;28;20042;-51
2023/06/18 10:50:29;;;;;;;14.02;12.63;;;26.60;66.80;;;;;;5038547;28;20121;-49
2023/06/18 10:53:23;;;;;;;11.88;10.68;;;26.70;64.80;;;;;;5034666;28;20105;-49
2023/06/18 10:55:58;;;;;;;13.20;12.05;;;26.50;65.60;;;;;;5034301;28;20052;-48
2023/06/18 10:58:37;;;;;;;9.80;8.93;;;26.10;63.70;;;;;;5028434;28;20033;-49
2023/06/18 11:01:03;;;;;;;11.40;10.40;;;26.20;65.40;;;;;;5028334;28;20151;-53
2023/06/18 11:03:40;;;;;;;9.43;8.48;;;25.90;64.30;;;;;;5029501;28;20160;-49
2023/06/18 11:06:27;;;;;;;9.00;8.07;;;26.20;67.20;;;;;;5024321;28;20038;-48
2023/06/18 11:08:53;;;;;;;9.52;8.43;;;26.40;65.10;;;;;;5029826;28;20469;-52
2023/06/18 11:11:25;;;;;;;12.27;11.18;;;26.40;65.70;;;;;;5020447;28;20034;-49
2023/06/18 11:13:53;;;;;;;12.95;11.85;;;26.90;60.90;;;;;;5018850;28;20131;-48
2023/06/18 11:16:25;;;;;;;13.07;11.83;;;26.60;60.80;;;;;;5034904;28;20029;-52
2023/06/18 11:18:59;;;;;;;10.82;9.82;;;26.70;62.90;;;;;;5030170;28;20036;-49
2023/06/18 11:21:27;;;;;;;12.85;11.07;;;26.90;64.70;;;;;;5031939;28;20038;-50
2023/06/18 11:23:56;;;;;;;13.27;11.85;;;26.80;61.60;;;;;;5033866;28;20041;-49
2023/06/18 11:26:23;;;;;;;12.70;11.52;;;26.80;60.20;;;;;;5030359;28;20056;-49
2023/06/18 11:28:50;;;;;;;14.63;13.30;;;26.60;62.80;;;;;;5018244;28;20030;-50
2023/06/18 11:31:17;;;;;;;14.95;13.65;;;26.70;63.00;;;;;;5024313;28;20060;-50
2023/06/18 11:34:02;;;;;;;15.30;14.00;;;26.60;62.40;;;;;;5029573;28;20025;-50
2023/06/18 11:36:30;;;;;;;15.07;13.68;;;26.60;62.40;;;;;;5028734;28;20435;-51
2023/06/18 11:38:58;;;;;;;13.15;11.85;;;26.80;61.90;;;;;;5023575;28;20492;-51
2023/06/18 11:41:25;;;;;;;12.93;11.77;;;27.00;60.70;;;;;;5031330;28;20064;-49
2023/06/18 11:43:53;;;;;;;14.38;12.88;;;26.60;60.80;;;;;;5024855;28;20167;-51
2023/06/18 11:46:28;;;;;;;11.98;10.82;;;26.50;61.50;;;;;;5038278;28;20036;-52
2023/06/18 11:48:56;;;;;;;12.75;11.55;;;26.50;63.20;;;;;;5027413;28;20029;-50
2023/06/18 11:51:25;;;;;;;13.57;12.27;;;26.60;61.00;;;;;;5019731;28;20030;-49
2023/06/18 11:53:52;;;;;;;13.98;12.57;;;26.60;60.90;;;;;;5026717;28;20073;-54
2023/06/18 11:56:26;;;;;;;11.60;10.18;;;26.40;61.70;;;;;;5011770;28;20030;-49
2023/06/18 11:59:13;;;;;;;12.10;10.65;;;26.20;64.00;;;;;;5038451;28;20029;-50
2023/06/18 12:01:41;;;;;;;10.63;9.57;;;25.90;64.50;;;;;;5036912;28;20041;-52
2023/06/18 12:04:08;;;;;;;12.10;10.85;;;25.80;65.60;;;;;;5038989;28;20040;-49
2023/06/18 12:06:37;;;;;;;12.07;10.82;;;25.70;66.30;;;;;;5030004;28;20079;-49
2023/06/18 12:09:25;;;;;;;12.50;11.05;;;25.70;66.40;;;;;;5026643;28;20044;-51
2023/06/18 12:12:09;;;;;;;12.25;10.10;;;25.90;67.80;;;;;;5027579;28;20033;-48
2023/06/18 12:14:57;;;;;;;13.82;12.40;;;26.00;67.50;;;;;;5025043;28;20092;-49
2023/06/18 12:17:50;;;;;;;11.82;10.77;;;26.10;64.80;;;;;;5036450;28;20021;-48
2023/06/18 12:20:29;;;;;;;11.38;10.20;;;25.90;64.90;;;;;;5025568;28;20022;-49
2023/06/18 12:22:56;;;;;;;9.98;9.00;;;25.90;63.50;;;;;;5029565;28;20057;-49
2023/06/18 12:25:26;;;;;;;11.57;10.35;;;25.80;63.90;;;;;;5035558;28;20076;-49
2023/06/18 12:28:02;;;;;;;11.23;10.20;;;25.80;62.80;;;;;;5014615;28;20062;-49
2023/06/18 12:30:36;;;;;;;11.30;10.30;;;25.70;61.80;;;;;;5020602;28;20022;-49
2023/06/18 12:33:26;;;;;;;9.40;8.38;;;25.60;64.00;;;;;;5023981;28;20068;-48
2023/06/18 12:35:56;;;;;;;9.82;8.75;;;25.50;64.90;;;;;;5027469;28;20386;-49
2023/06/18 12:38:25;;;;;;;9.80;8.90;;;25.30;65.90;;;;;;5029773;28;20062;-48
2023/06/18 12:40:56;;;;;;;10.27;9.27;;;25.30;66.90;;;;;;5024508;28;20105;-49
2023/06/18 12:43:24;;;;;;;9.02;8.20;;;25.30;66.60;;;;;;5029024;28;20034;-49